Terminal Aerodrome Forecast
Issued by NWS Omaha/Valley, NE

Home | Current Version | Previous Version | Text Only | Print | Product List | Glossary On
Versions: 1 2 3 4 5 6 7 8 9 10 11 12 13 14 15 16 17 18 19 20 21 22 23 24 25 26 27 28 29 30 31 32 33 34 35
000
FTUS43 KOAX 280520
TAFOMA
TAF
KOMA 280520Z 2806/2906 14014KT P6SM SCT030 BKN150
     FM281000 15012KT P6SM BKN080
      TEMPO 2812/2815 VRB15G25KT 6SM -SHRA BKN040
     FM281600 18010KT P6SM OVC100
      TEMPO 2816/2818 -SHRA
     FM282100 33012G20KT P6SM SCT080 BKN150 PROB30 2821/2902 5SM
      -SHRA BKN040=

USA.gov is the U.S. government's official web portal to all federal, state and local government web resources and services.